Airport View

Enter AWOS ICAO identifier for current METAR.

ex. KFNL

KGAD 181156Z AUTO 13007KT 10SM OVC030 09/01 A3034 RMK AO2 SLP279 T00940006 10106 20094 56014

18 Jan 2020 11:59

Frequency: 127.825

Phone: 256-442-7094

Other Area AWOS: K8A0 - KASN - KANB - KPLR

TAF KANB 180532Z 1806/1906 09011G20KT P6SM BKN080 FM181200 12009G18KT P6SM VCSH OVC022 FM181800 17010G22KT 6SM SHRA OVC014 WS020/21035KT FM190000 22011G20KT P6SM VCSH OVC009 FM190500 32006KT P6SM OVC016